Allerton, Iowa
Current Conditions -  °F | °C
As of 8:35 AM on Sunday 23 Nov 2014 (Local Time) from KCNC Reporting Station
Light Rain Light Rain  
Wind Chill: 50°   Ceiling: 300
Heat Index: 50°   Visibility: 1.2mi
Dew Point: 50°   Wind: 8mph
Humidity: 100%   Direction: 140°SE
Pressure: 29.53"   Gusts: NA
Location:  40.71°N, 93.37°W
Report Text: KCNC 231435Z AUTO 14007KT 1 1/4SM -RA OVC003 10/10 A2953 RMK AO2
Loading
Personal Weather Stations






























Interactive Weather Map New forecast layout! Learn more

10-Day Weather Forecast

Advertisements
Track Severe Weather on mobile